createdAt,value
2023-01-13T00:04:57.671Z,5.78
2023-01-13T00:09:59.660Z,5.79
2023-01-13T00:15:01.775Z,5.81
2023-01-13T00:20:03.968Z,5.71
2023-01-13T00:25:06.904Z,5.77
2023-01-13T00:30:09.452Z,5.69
2023-01-13T00:35:11.414Z,5.69
2023-01-13T00:40:13.701Z,5.68
2023-01-13T00:45:15.835Z,5.55
2023-01-13T00:50:17.867Z,5.68
2023-01-13T00:55:20.047Z,5.65
2023-01-13T01:00:21.907Z,5.61
2023-01-13T01:05:23.763Z,5.42
2023-01-13T01:10:26.038Z,5.49
2023-01-13T01:15:28.027Z,5.39
2023-01-13T01:20:29.940Z,5.43
2023-01-13T01:25:33.391Z,5.21
2023-01-13T01:30:35.374Z,5.28
2023-01-13T01:35:40.690Z,5.37
2023-01-13T01:40:42.801Z,5.11
2023-01-13T01:45:45.004Z,5.19
2023-01-13T01:50:47.501Z,5.08
2023-01-13T01:55:49.401Z,5.18
2023-01-13T02:00:51.754Z,5.11
2023-01-13T02:05:53.852Z,5.05
2023-01-13T02:10:55.836Z,5.08
2023-01-13T02:15:59.105Z,4.91
2023-01-13T02:21:13.773Z,5.19
2023-01-13T02:26:21.650Z,5.16
2023-01-13T02:31:42.314Z,5.07
2023-01-13T02:37:07.262Z,5.21
2023-01-13T02:42:29.099Z,5.25
2023-01-13T02:47:34.492Z,5.15
2023-01-13T02:53:04.757Z,5.39
2023-01-13T02:58:09.191Z,5.37
2023-01-13T03:03:11.387Z,5.47
2023-01-13T03:08:30.825Z,5.27
2023-01-13T03:14:09.047Z,5.47
2023-01-13T03:19:26.002Z,5.42
2023-01-13T03:24:36.059Z,5.47
2023-01-13T03:29:42.637Z,5.44
2023-01-13T03:34:48.232Z,5.50
2023-01-13T03:40:01.042Z,5.36
2023-01-13T03:45:11.517Z,5.46
2023-01-13T03:50:18.012Z,5.35
2023-01-13T03:55:23.684Z,5.42
2023-01-13T04:00:32.315Z,5.34
2023-01-13T04:05:37.062Z,5.46
2023-01-13T04:10:46.043Z,5.37
2023-01-13T04:15:49.665Z,5.46
2023-01-13T04:20:53.374Z,5.40
2023-01-13T04:25:55.755Z,5.19
2023-01-13T04:30:57.913Z,5.20
2023-01-13T04:35:59.915Z,5.10
2023-01-13T04:41:01.873Z,5.02
2023-01-13T04:46:03.782Z,5.16
2023-01-13T04:51:06.067Z,5.04
2023-01-13T04:56:08.249Z,5.02
2023-01-13T05:01:10.657Z,5.03
2023-01-13T05:06:12.680Z,4.91
2023-01-13T05:11:33.632Z,5.14
2023-01-13T05:16:54.470Z,5.04
2023-01-13T05:22:14.898Z,5.20
2023-01-13T05:27:17.202Z,5.01
2023-01-13T05:32:19.660Z,5.21
2023-01-13T05:37:21.904Z,5.18
2023-01-13T05:42:42.500Z,5.06
2023-01-13T05:47:44.420Z,5.22
2023-01-13T05:52:46.357Z,5.21
2023-01-13T05:57:48.281Z,5.21
2023-01-13T06:02:50.272Z,5.27
2023-01-13T06:07:52.189Z,5.35
2023-01-13T06:12:54.325Z,5.30
2023-01-13T06:17:57.260Z,5.35
2023-01-13T06:22:59.646Z,5.32
2023-01-13T06:28:02.257Z,5.18
2023-01-13T06:33:05.345Z,5.36
2023-01-13T06:38:10.824Z,5.40
2023-01-13T06:43:16.664Z,5.34
2023-01-13T06:48:20.941Z,5.39
2023-01-13T06:53:22.961Z,5.38
2023-01-13T06:58:24.968Z,5.26
2023-01-13T07:03:26.882Z,5.27
2023-01-13T07:08:28.998Z,5.06
2023-01-13T07:13:49.809Z,5.16
2023-01-13T07:18:51.821Z,5.14
2023-01-13T07:23:53.760Z,5.14
2023-01-13T07:28:55.773Z,4.98
2023-01-13T07:33:57.635Z,4.96
2023-01-13T07:38:59.827Z,4.94
2023-01-13T07:44:05.126Z,4.97
2023-01-13T07:49:07.629Z,4.98
2023-01-13T07:54:09.551Z,5.15
2023-01-13T07:59:11.801Z,5.17
2023-01-13T08:04:13.732Z,5.05
2023-01-13T08:09:15.641Z,5.16
2023-01-13T08:14:17.663Z,5.20
2023-01-13T08:19:20.538Z,5.03
2023-01-13T08:24:22.502Z,5.22
2023-01-13T08:29:24.571Z,4.99
2023-01-13T08:34:26.673Z,5.30
2023-01-13T08:39:28.608Z,5.09
2023-01-13T08:44:31.829Z,5.34
2023-01-13T08:49:34.414Z,5.43
2023-01-13T08:54:38.989Z,5.42
2023-01-13T08:59:41.321Z,5.53
2023-01-13T09:04:43.905Z,5.61
2023-01-13T09:09:45.855Z,5.69
2023-01-13T09:14:48.244Z,5.68
2023-01-13T09:19:50.637Z,5.75
2023-01-13T09:24:53.239Z,5.76
2023-01-13T09:29:55.270Z,6.02
2023-01-13T09:35:03.964Z,6.16
2023-01-13T09:40:11.681Z,6.30
2023-01-13T09:45:13.771Z,6.40
2023-01-13T09:50:18.771Z,6.86
2023-01-13T09:55:30.353Z,6.75
2023-01-13T10:00:39.016Z,7.06
2023-01-13T10:05:44.431Z,8.06
2023-01-13T10:10:53.781Z,9.01
2023-01-13T10:16:11.183Z,9.41
2023-01-13T10:21:39.317Z,8.66
2023-01-13T10:26:47.266Z,8.10
2023-01-13T10:31:49.412Z,9.39
2023-01-13T10:37:17.017Z,10.27
2023-01-13T10:42:23.205Z,11.38
2023-01-13T10:47:30.379Z,10.89
2023-01-13T10:52:37.726Z,12.01
2023-01-13T10:57:39.606Z,11.59
2023-01-13T11:02:41.820Z,10.77
2023-01-13T11:07:52.866Z,10.40
2023-01-13T11:13:33.250Z,9.79
2023-01-13T11:18:38.262Z,9.54
2023-01-13T11:23:44.596Z,9.53
2023-01-13T11:29:06.184Z,9.27
2023-01-13T11:34:35.812Z,9.44
2023-01-13T11:40:09.965Z,9.35
2023-01-13T11:45:19.981Z,9.35
2023-01-13T11:50:42.356Z,9.47
2023-01-13T11:56:01.166Z,9.33
2023-01-13T12:01:22.297Z,9.31
2023-01-13T12:06:40.329Z,9.31
2023-01-13T12:12:11.610Z,9.22
2023-01-13T12:17:36.601Z,9.29
2023-01-13T12:22:39.508Z,9.26
2023-01-13T12:27:47.371Z,9.26
2023-01-13T12:32:49.932Z,9.23
2023-01-13T12:38:02.580Z,9.32
2023-01-13T12:43:37.602Z,9.31
2023-01-13T12:48:54.711Z,9.52
2023-01-13T12:53:56.927Z,9.63
2023-01-13T12:59:32.649Z,9.99
2023-01-13T13:04:56.229Z,10.07
2023-01-13T13:10:06.152Z,9.96
2023-01-13T13:15:24.048Z,10.07
2023-01-13T13:21:03.953Z,10.06
2023-01-13T13:26:29.426Z,10.09
2023-01-13T13:31:31.585Z,10.11
2023-01-13T13:37:55.020Z,10.13
2023-01-13T13:43:16.130Z,10.20
2023-01-13T13:48:28.100Z,10.27
2023-01-13T13:53:36.185Z,10.13
2023-01-13T13:58:38.192Z,10.13
2023-01-13T14:03:40.367Z,10.38
2023-01-13T14:08:50.231Z,10.42
2023-01-13T14:14:06.804Z,10.32
2023-01-13T14:19:28.808Z,10.38
2023-01-13T14:24:31.664Z,10.15
2023-01-13T14:29:34.011Z,10.40
2023-01-13T14:34:37.861Z,10.33
2023-01-13T14:39:42.588Z,10.27
2023-01-13T14:44:45.727Z,10.32
2023-01-13T14:50:06.420Z,10.37
2023-01-13T14:55:10.160Z,10.30
2023-01-13T15:00:14.832Z,10.35
2023-01-13T15:05:19.536Z,10.23
2023-01-13T15:10:28.825Z,10.33
2023-01-13T15:15:35.973Z,10.30
2023-01-13T15:20:39.398Z,10.26
2023-01-13T15:25:42.933Z,10.24
2023-01-13T15:30:45.066Z,10.18
2023-01-13T15:35:52.350Z,10.22
2023-01-13T15:40:54.405Z,10.21
2023-01-13T15:46:15.359Z,10.20
2023-01-13T15:51:17.807Z,10.12
2023-01-13T15:56:23.929Z,10.11
2023-01-13T16:01:26.142Z,10.15
2023-01-13T16:06:33.196Z,10.14
2023-01-13T16:11:35.242Z,10.12
2023-01-13T16:16:37.810Z,10.02
2023-01-13T16:21:40.551Z,9.82
2023-01-13T16:26:42.649Z,9.88
2023-01-13T16:31:44.643Z,9.67
2023-01-13T16:36:46.814Z,9.73
2023-01-13T16:41:49.289Z,9.49
2023-01-13T16:46:51.307Z,9.44
2023-01-13T16:51:53.321Z,9.38
2023-01-13T16:56:55.269Z,9.41
2023-01-13T17:01:57.426Z,9.32
2023-01-13T17:07:08.198Z,9.22
2023-01-13T17:12:10.867Z,8.87
2023-01-13T17:17:27.792Z,8.92
2023-01-13T17:22:30.939Z,8.77
2023-01-13T17:27:33.386Z,8.85
2023-01-13T17:32:35.355Z,8.66
2023-01-13T17:37:37.433Z,8.62
2023-01-13T17:42:39.491Z,8.60
2023-01-13T17:47:41.617Z,8.38
2023-01-13T17:52:43.489Z,8.20
2023-01-13T17:57:45.557Z,8.38
2023-01-13T18:02:47.552Z,8.13
2023-01-13T18:07:49.533Z,8.19
2023-01-13T18:12:51.681Z,8.15
2023-01-13T18:17:53.690Z,8.05
2023-01-13T18:23:14.160Z,7.89
2023-01-13T18:28:16.236Z,7.96
2023-01-13T18:33:18.388Z,7.84
2023-01-13T18:38:23.971Z,7.69
2023-01-13T18:43:26.160Z,7.82
2023-01-13T18:48:28.190Z,7.67
2023-01-13T18:53:30.249Z,7.68
2023-01-13T18:58:33.250Z,7.63
2023-01-13T19:03:35.192Z,7.63
2023-01-13T19:08:37.659Z,7.61
2023-01-13T19:13:39.710Z,7.59
2023-01-13T19:18:41.841Z,7.53
2023-01-13T19:23:43.898Z,7.27
2023-01-13T19:37:06.811Z,7.22
2023-01-13T19:42:29.434Z,7.04
2023-01-13T19:47:31.525Z,6.99
2023-01-13T19:52:33.568Z,7.02
2023-01-13T19:57:35.754Z,6.92
2023-01-13T20:02:38.771Z,6.68
2023-01-13T20:07:40.777Z,6.84
2023-01-13T20:12:42.798Z,6.64
2023-01-13T20:17:44.883Z,6.61
2023-01-13T20:22:49.196Z,6.77
2023-01-13T20:27:51.118Z,6.67
2023-01-13T20:32:53.080Z,6.79
2023-01-13T20:37:55.063Z,6.65
2023-01-13T20:42:57.113Z,6.75
2023-01-13T20:47:59.171Z,6.71
2023-01-13T20:53:01.218Z,6.61
2023-01-13T20:58:03.290Z,6.60
2023-01-13T21:03:05.278Z,6.39
2023-01-13T21:08:07.344Z,6.52
2023-01-13T21:13:29.856Z,6.46
2023-01-13T21:18:50.271Z,6.18
2023-01-13T21:23:53.068Z,6.19
2023-01-13T21:28:58.787Z,6.23
2023-01-13T21:34:01.000Z,6.16
2023-01-13T21:39:03.132Z,6.21
2023-01-13T21:44:23.768Z,5.93
2023-01-13T21:49:25.830Z,5.83
2023-01-13T21:54:28.108Z,5.93
2023-01-13T21:59:30.086Z,5.85
2023-01-13T22:04:32.811Z,5.74
2023-01-13T22:09:35.092Z,5.73
2023-01-13T22:14:37.081Z,5.64
2023-01-13T22:19:42.337Z,5.69
2023-01-13T22:24:47.787Z,5.66
2023-01-13T22:29:50.639Z,5.63
2023-01-13T22:34:52.651Z,5.59
2023-01-13T22:39:54.565Z,5.60
2023-01-13T22:44:56.659Z,5.61
2023-01-13T22:49:58.763Z,5.56
2023-01-13T22:55:01.077Z,5.45
2023-01-13T23:00:04.863Z,5.43
2023-01-13T23:05:07.232Z,5.57
2023-01-13T23:10:09.719Z,5.52
2023-01-13T23:15:11.823Z,5.27
2023-01-13T23:20:13.936Z,5.30
2023-01-13T23:25:16.036Z,5.25
2023-01-13T23:30:18.360Z,5.17
2023-01-13T23:35:20.360Z,4.91
2023-01-13T23:40:22.431Z,5.09
2023-01-13T23:45:24.545Z,4.85
2023-01-13T23:50:26.582Z,4.97
2023-01-13T23:55:28.617Z,4.83
